createdAt,value
2023-05-16T00:00:46.392Z,15.40
2023-05-16T00:03:28.262Z,15.41
2023-05-16T00:05:59.564Z,15.41
2023-05-16T00:08:30.334Z,15.41
2023-05-16T00:11:01.669Z,15.43
2023-05-16T00:13:32.580Z,15.43
2023-05-16T00:16:05.312Z,15.40
2023-05-16T00:18:37.646Z,15.34
2023-05-16T00:21:08.479Z,15.28
2023-05-16T00:23:39.276Z,15.26
2023-05-16T00:26:10.183Z,15.26
2023-05-16T00:28:40.766Z,15.26
2023-05-16T00:31:11.647Z,15.21
2023-05-16T00:33:42.537Z,15.19
2023-05-16T00:36:13.214Z,15.18
2023-05-16T00:38:43.936Z,15.17
2023-05-16T00:41:14.662Z,15.13
2023-05-16T00:43:45.496Z,15.07
2023-05-16T00:46:16.587Z,15.05
2023-05-16T00:48:47.302Z,15.06
2023-05-16T00:51:18.242Z,15.12
2023-05-16T00:53:48.766Z,15.14
2023-05-16T00:56:19.963Z,15.13
2023-05-16T00:58:51.388Z,15.12
2023-05-16T01:01:22.262Z,15.09
2023-05-16T01:03:53.203Z,15.06
2023-05-16T01:06:24.204Z,15.04
2023-05-16T01:08:54.822Z,15.03
2023-05-16T01:11:27.361Z,15.00
2023-05-16T01:14:00.692Z,14.96
2023-05-16T01:16:34.928Z,14.96
2023-05-16T01:19:08.390Z,15.00
2023-05-16T01:21:43.693Z,15.10
2023-05-16T01:24:19.467Z,15.21
2023-05-16T01:26:50.253Z,15.26
2023-05-16T01:29:20.804Z,15.23
2023-05-16T01:31:51.633Z,15.24
2023-05-16T01:34:22.369Z,15.23
2023-05-16T01:36:53.949Z,15.21
2023-05-16T01:39:28.229Z,15.19
2023-05-16T01:42:00.615Z,15.19
2023-05-16T01:44:33.352Z,15.19
2023-05-16T01:47:05.597Z,15.16
2023-05-16T01:49:37.238Z,15.11
2023-05-16T01:52:09.992Z,15.11
2023-05-16T01:54:41.162Z,15.13
2023-05-16T01:57:12.089Z,15.14
2023-05-16T01:59:43.630Z,15.16
2023-05-16T02:02:14.281Z,15.13
2023-05-16T02:04:45.100Z,15.09
2023-05-16T02:07:16.019Z,15.02
2023-05-16T02:09:46.789Z,14.97
2023-05-16T02:12:18.205Z,14.95
2023-05-16T02:14:49.078Z,14.96
2023-05-16T02:17:20.035Z,15.00
2023-05-16T02:19:50.637Z,15.03
2023-05-16T02:22:21.505Z,15.06
2023-05-16T02:24:52.973Z,15.03
2023-05-16T02:27:23.645Z,14.98
2023-05-16T02:29:54.524Z,14.94
2023-05-16T02:32:25.366Z,14.92
2023-05-16T02:34:55.995Z,14.89
2023-05-16T02:37:27.013Z,14.86
2023-05-16T02:39:57.808Z,14.83
2023-05-16T02:42:29.525Z,14.81
2023-05-16T02:45:00.295Z,14.79
2023-05-16T02:47:30.953Z,14.74
2023-05-16T02:50:01.773Z,14.76
2023-05-16T02:52:32.474Z,14.82
2023-05-16T02:57:36.961Z,14.87
2023-05-16T03:00:10.880Z,14.83
2023-05-16T03:02:41.808Z,14.75
2023-05-16T03:05:12.907Z,14.68
2023-05-16T03:07:43.728Z,14.62
2023-05-16T03:10:14.553Z,14.59
2023-05-16T03:12:46.534Z,14.57
2023-05-16T03:15:17.545Z,14.57
2023-05-16T03:17:48.314Z,14.60
2023-05-16T03:20:19.275Z,14.62
2023-05-16T03:22:49.975Z,14.59
2023-05-16T03:25:20.701Z,14.52
2023-05-16T03:27:51.421Z,14.49
2023-05-16T03:30:22.213Z,14.51
2023-05-16T03:32:53.301Z,14.53
2023-05-16T03:35:24.892Z,14.57
2023-05-16T03:37:57.091Z,14.62
2023-05-16T03:40:27.816Z,14.66
2023-05-16T03:42:58.501Z,14.69
2023-05-16T03:45:29.489Z,14.75
2023-05-16T03:48:00.600Z,14.78
2023-05-16T03:50:31.389Z,14.77
2023-05-16T03:53:02.207Z,14.72
2023-05-16T03:55:33.003Z,14.70
2023-05-16T03:58:03.769Z,14.71
2023-05-16T04:00:34.620Z,14.72
2023-05-16T04:03:05.514Z,14.70
2023-05-16T04:05:36.421Z,14.64
2023-05-16T04:08:07.475Z,14.65
2023-05-16T04:10:38.083Z,14.64
2023-05-16T04:13:10.057Z,14.63
2023-05-16T04:15:40.926Z,14.62
2023-05-16T04:18:21.954Z,14.61
2023-05-16T04:20:52.736Z,14.61
2023-05-16T04:23:25.264Z,14.61
2023-05-16T04:25:56.526Z,14.61
2023-05-16T04:28:27.283Z,14.66
2023-05-16T04:30:57.971Z,14.71
2023-05-16T04:33:28.628Z,14.72
2023-05-16T04:35:59.426Z,14.73
2023-05-16T04:38:30.095Z,14.75
2023-05-16T04:41:00.896Z,14.83
2023-05-16T04:43:32.220Z,14.91
2023-05-16T04:46:04.265Z,14.96
2023-05-16T04:48:34.922Z,15.00
2023-05-16T04:51:05.965Z,15.04
2023-05-16T04:53:36.826Z,15.03
2023-05-16T04:56:07.918Z,15.00
2023-05-16T04:58:39.616Z,14.97
2023-05-16T05:01:11.849Z,14.95
2023-05-16T05:03:42.644Z,14.93
2023-05-16T05:06:13.424Z,14.96
2023-05-16T05:08:44.169Z,15.01
2023-05-16T05:11:15.096Z,15.05
2023-05-16T05:13:45.882Z,15.13
2023-05-16T05:16:16.539Z,15.21
2023-05-16T05:18:47.237Z,15.28
2023-05-16T05:21:18.562Z,15.34
2023-05-16T05:23:50.544Z,15.36
2023-05-16T05:26:22.336Z,15.41
2023-05-16T05:29:04.607Z,15.51
2023-05-16T05:31:36.982Z,15.60
2023-05-16T05:34:07.982Z,15.67
2023-05-16T05:36:38.665Z,15.74
2023-05-16T05:39:09.271Z,15.78
2023-05-16T05:41:40.180Z,15.84
2023-05-16T05:44:11.095Z,15.89
2023-05-16T05:46:41.824Z,15.93
2023-05-16T05:49:12.628Z,15.99
2023-05-16T05:51:43.223Z,16.08
2023-05-16T05:54:14.097Z,16.16
2023-05-16T05:56:44.798Z,16.26
2023-05-16T05:59:15.654Z,16.31
2023-05-16T06:01:47.011Z,16.29
2023-05-16T06:04:17.866Z,16.31
2023-05-16T06:06:49.016Z,16.32
2023-05-16T06:09:19.832Z,16.30
2023-05-16T06:11:51.011Z,16.33
2023-05-16T06:14:21.826Z,16.36
2023-05-16T06:16:53.166Z,16.41
2023-05-16T06:19:25.437Z,16.49
2023-05-16T06:21:56.403Z,16.57
2023-05-16T06:24:27.228Z,16.64
2023-05-16T06:26:58.322Z,16.71
2023-05-16T06:29:29.052Z,16.79
2023-05-16T06:31:59.911Z,16.83
2023-05-16T06:34:32.108Z,16.85
2023-05-16T06:37:03.943Z,16.90
2023-05-16T06:39:34.829Z,16.94
2023-05-16T06:42:05.995Z,16.98
2023-05-16T06:44:36.852Z,17.04
2023-05-16T06:47:07.859Z,17.11
2023-05-16T09:22:59.637Z,22.85
2023-05-16T09:25:31.391Z,22.91
2023-05-16T09:28:02.527Z,22.88
2023-05-16T09:30:35.097Z,22.88
2023-05-16T09:33:06.144Z,22.85
2023-05-16T09:35:43.774Z,22.86
2023-05-16T09:38:18.559Z,22.92
2023-05-16T09:40:49.357Z,23.10
2023-05-16T09:43:21.876Z,23.36
2023-05-16T09:45:52.739Z,23.73
2023-05-16T09:48:23.873Z,24.08
2023-05-16T09:50:55.169Z,24.38
2023-05-16T09:53:29.400Z,24.60
2023-05-16T09:56:04.273Z,24.83
2023-05-16T09:58:35.649Z,25.04
2023-05-16T10:01:07.370Z,25.36
2023-05-16T10:03:39.195Z,25.69
2023-05-16T10:06:10.276Z,25.89
2023-05-16T10:08:41.732Z,26.15
2023-05-16T10:11:12.560Z,26.42
2023-05-16T10:13:45.067Z,26.73
2023-05-16T10:16:15.830Z,26.93
2023-05-16T10:18:46.646Z,27.12
2023-05-16T10:21:18.558Z,27.14
2023-05-16T10:23:49.868Z,26.99
2023-05-16T10:26:22.026Z,26.75
2023-05-16T10:28:52.624Z,26.47
2023-05-16T10:31:23.423Z,26.32
2023-05-16T10:33:54.268Z,26.26
2023-05-16T10:36:25.059Z,26.18
2023-05-16T10:38:55.738Z,26.12
2023-05-16T10:41:26.440Z,26.13
2023-05-16T10:44:00.353Z,26.22
2023-05-16T10:46:31.313Z,26.33
2023-05-16T10:49:02.175Z,26.44
2023-05-16T10:51:41.728Z,26.66
2023-05-16T10:54:15.089Z,26.76
2023-05-16T10:56:46.034Z,26.75
2023-05-16T10:59:27.284Z,26.72
2023-05-16T11:01:58.024Z,26.62
2023-05-16T11:04:33.263Z,26.60
2023-05-16T11:07:04.022Z,26.62
2023-05-16T11:09:34.745Z,26.65
2023-05-16T11:12:06.546Z,26.77
2023-05-16T11:14:42.569Z,26.96
2023-05-16T11:17:14.102Z,27.24
2023-05-16T11:19:46.093Z,27.54
2023-05-16T11:22:24.187Z,27.65
2023-05-16T11:24:56.341Z,27.70
2023-05-16T11:27:28.234Z,27.89
2023-05-16T11:30:02.862Z,28.18
2023-05-16T11:32:35.462Z,28.29
2023-05-16T11:35:08.119Z,28.32
2023-05-16T11:37:39.426Z,28.44
2023-05-16T11:40:11.450Z,28.59
2023-05-16T11:42:42.936Z,28.58
2023-05-16T11:45:14.655Z,28.50
2023-05-16T11:47:47.685Z,28.54
2023-05-16T11:50:19.089Z,28.66
2023-05-16T11:52:50.533Z,28.85
2023-05-16T11:55:39.428Z,28.96
2023-05-16T11:58:12.626Z,29.10
2023-05-16T12:00:50.595Z,29.15
2023-05-16T12:03:24.008Z,29.10
2023-05-16T12:05:55.308Z,29.05
2023-05-16T12:08:26.125Z,29.03
2023-05-16T12:10:56.668Z,28.83
2023-05-16T12:13:27.771Z,28.64
2023-05-16T12:15:58.902Z,28.50
2023-05-16T12:18:29.598Z,28.34
2023-05-16T12:21:00.330Z,28.23
2023-05-16T12:23:31.661Z,28.05
2023-05-16T12:26:08.026Z,27.87
2023-05-16T12:28:39.615Z,27.78
2023-05-16T12:31:29.392Z,27.70
2023-05-16T12:34:02.121Z,27.58
2023-05-16T12:36:35.027Z,27.42
2023-05-16T12:39:05.791Z,27.33
2023-05-16T12:41:36.607Z,27.27
2023-05-16T12:44:12.145Z,27.26
2023-05-16T12:46:46.968Z,27.29
2023-05-16T12:49:17.653Z,27.31
2023-05-16T12:51:52.443Z,27.31
2023-05-16T12:54:23.830Z,27.26
2023-05-16T12:56:54.535Z,27.19
2023-05-16T12:59:25.187Z,27.19
2023-05-16T13:01:57.104Z,27.28
2023-05-16T13:04:27.894Z,27.36
2023-05-16T13:06:59.930Z,27.38
2023-05-16T13:09:33.010Z,27.44
2023-05-16T13:12:04.411Z,27.57
2023-05-16T13:14:34.879Z,27.65
2023-05-16T13:17:05.965Z,27.75
2023-05-16T13:19:36.758Z,27.84
2023-05-16T13:22:07.424Z,27.90
2023-05-16T13:24:38.235Z,28.00
2023-05-16T13:27:09.023Z,28.07
2023-05-16T13:29:40.792Z,28.10
2023-05-16T13:32:11.764Z,28.10
2023-05-16T13:34:42.612Z,28.07
2023-05-16T13:37:13.556Z,28.07
2023-05-16T13:39:44.401Z,28.11
2023-05-16T13:42:15.402Z,28.16
2023-05-16T13:44:46.335Z,28.20
2023-05-16T13:47:17.140Z,28.25
2023-05-16T13:49:48.096Z,28.23
2023-05-16T13:52:20.529Z,28.20
2023-05-16T13:54:52.203Z,28.15
2023-05-16T13:57:23.317Z,28.04
2023-05-16T14:00:11.431Z,28.00
2023-05-16T14:02:45.443Z,28.01
2023-05-16T14:05:17.741Z,28.00
2023-05-16T14:07:48.468Z,27.93
2023-05-16T14:10:19.265Z,27.82
2023-05-16T14:12:50.232Z,27.74
2023-05-16T14:15:21.191Z,27.66
2023-05-16T14:17:51.971Z,27.58
2023-05-16T14:20:23.104Z,27.49
2023-05-16T14:22:53.961Z,27.39
2023-05-16T14:25:24.788Z,27.30
2023-05-16T14:27:55.592Z,27.18
2023-05-16T14:30:26.889Z,27.10
2023-05-16T14:32:59.392Z,27.06
2023-05-16T14:35:31.395Z,27.00
2023-05-16T14:38:02.617Z,26.89
2023-05-16T14:40:33.302Z,26.83
2023-05-16T14:43:06.563Z,26.77
2023-05-16T14:45:37.066Z,26.66
2023-05-16T14:48:08.651Z,26.57
2023-05-16T14:50:40.936Z,26.53
2023-05-16T14:53:14.086Z,26.52
2023-05-16T14:55:45.207Z,26.47
2023-05-16T14:58:15.827Z,26.41
2023-05-16T15:00:47.742Z,26.38
2023-05-16T15:03:19.226Z,26.33
2023-05-16T15:05:50.558Z,26.29
2023-05-16T15:08:22.330Z,26.27
2023-05-16T15:10:53.013Z,26.23
2023-05-16T15:13:23.974Z,26.16
2023-05-16T15:15:56.074Z,26.12
2023-05-16T15:18:26.862Z,26.09
2023-05-16T15:20:57.342Z,26.08
2023-05-16T15:23:28.433Z,26.09
2023-05-16T15:25:59.053Z,26.03
2023-05-16T15:28:30.208Z,25.98
2023-05-16T15:31:00.932Z,25.96
2023-05-16T15:33:31.629Z,25.91
2023-05-16T15:36:02.490Z,25.88
2023-05-16T15:38:33.282Z,25.81
2023-05-16T15:41:18.619Z,25.72
2023-05-16T15:43:57.637Z,25.65
2023-05-16T15:46:30.545Z,25.62
2023-05-16T15:49:01.384Z,25.57
2023-05-16T15:51:32.307Z,25.52
2023-05-16T15:54:04.892Z,25.49
2023-05-16T15:56:35.567Z,25.46
2023-05-16T15:59:06.201Z,25.43
2023-05-16T16:01:36.981Z,25.37
2023-05-16T16:04:08.685Z,25.30
2023-05-16T16:06:39.423Z,25.23
2023-05-16T16:09:11.206Z,25.19
2023-05-16T16:11:41.807Z,25.14
2023-05-16T16:14:12.747Z,25.13
2023-05-16T16:16:43.874Z,25.10
2023-05-16T16:19:14.778Z,25.06
2023-05-16T16:21:45.661Z,25.03
2023-05-16T16:24:16.779Z,24.99
2023-05-16T16:26:47.604Z,24.95
2023-05-16T16:29:19.534Z,24.92
2023-05-16T16:31:50.785Z,24.89
2023-05-16T16:34:23.347Z,24.84
2023-05-16T16:36:55.017Z,24.77
2023-05-16T16:39:29.454Z,24.72
2023-05-16T16:42:02.002Z,24.68
2023-05-16T16:44:34.222Z,24.63
2023-05-16T16:47:05.251Z,24.58
2023-05-16T16:49:37.282Z,24.51
2023-05-16T16:52:09.169Z,24.45
2023-05-16T16:54:41.264Z,24.41
2023-05-16T16:57:13.113Z,24.35
2023-05-16T16:59:47.310Z,24.28
2023-05-16T17:02:18.443Z,24.21
2023-05-16T17:04:50.273Z,24.14
2023-05-16T17:07:21.584Z,24.09
2023-05-16T17:09:54.320Z,24.01
2023-05-16T17:16:29.484Z,23.89
2023-05-16T17:19:00.450Z,23.80
2023-05-16T17:21:31.589Z,23.73
2023-05-16T17:24:02.532Z,23.67
2023-05-16T17:26:33.532Z,23.59
2023-05-16T17:29:05.248Z,23.48
2023-05-16T17:31:36.394Z,23.37
2023-05-16T17:34:07.318Z,23.28
2023-05-16T17:36:38.805Z,23.20
2023-05-16T17:39:11.052Z,23.12
2023-05-16T17:41:41.956Z,23.06
2023-05-16T17:44:12.949Z,23.00
2023-05-16T17:46:44.484Z,22.92
2023-05-16T17:49:15.486Z,22.81
2023-05-16T17:51:49.982Z,22.75
2023-05-16T17:54:22.261Z,22.68
2023-05-16T17:56:56.927Z,22.63
2023-05-16T17:59:28.440Z,22.57
2023-05-16T18:01:59.483Z,22.45
2023-05-16T18:04:30.755Z,22.32
2023-05-16T18:07:01.736Z,22.17
2023-05-16T18:09:35.430Z,22.02
2023-05-16T18:12:07.176Z,21.94
2023-05-16T18:14:38.203Z,21.87
2023-05-16T18:17:09.655Z,21.77
2023-05-16T18:19:43.060Z,21.70
2023-05-16T18:22:16.158Z,21.63
2023-05-16T18:24:47.062Z,21.52
2023-05-16T18:27:18.018Z,21.40
2023-05-16T18:29:48.770Z,21.27
2023-05-16T18:32:19.671Z,21.16
2023-05-16T18:34:50.626Z,21.09
2023-05-16T18:37:21.553Z,21.00
2023-05-16T18:39:52.426Z,20.90
2023-05-16T18:42:23.378Z,20.78
2023-05-16T18:44:59.744Z,20.66
2023-05-16T18:47:36.659Z,20.56
2023-05-16T18:50:08.558Z,20.46
2023-05-16T18:52:42.622Z,20.39
2023-05-16T18:55:13.691Z,20.36
2023-05-16T18:57:52.530Z,20.34
2023-05-16T19:00:25.058Z,20.26
2023-05-16T19:02:57.022Z,20.19
2023-05-16T19:05:30.759Z,20.14
2023-05-16T19:08:02.274Z,20.08
2023-05-16T19:10:38.080Z,19.99
2023-05-16T19:13:09.114Z,19.85
2023-05-16T19:15:40.220Z,19.76
2023-05-16T19:18:11.720Z,19.70
2023-05-16T19:20:44.411Z,19.68
2023-05-16T19:23:16.461Z,19.64
2023-05-16T19:25:49.174Z,19.60
2023-05-16T19:28:20.044Z,19.54
2023-05-16T19:30:50.855Z,19.51
2023-05-16T19:33:21.944Z,19.48
2023-05-16T19:35:56.156Z,19.41
2023-05-16T19:38:27.129Z,19.35
2023-05-16T19:40:58.225Z,19.29
2023-05-16T19:43:29.942Z,19.25
2023-05-16T19:46:00.884Z,19.17
2023-05-16T19:48:31.841Z,19.07
2023-05-16T19:51:02.731Z,18.97
2023-05-16T19:53:33.932Z,18.91
2023-05-16T19:56:05.776Z,18.85
2023-05-16T19:58:36.591Z,18.74
2023-05-16T20:01:07.341Z,18.63
2023-05-16T20:03:38.391Z,18.52
2023-05-16T20:06:09.250Z,18.44
2023-05-16T20:08:42.545Z,18.40
2023-05-16T20:11:20.163Z,18.38
2023-05-16T20:13:51.185Z,18.34
2023-05-16T20:16:22.223Z,18.30
2023-05-16T20:18:53.245Z,18.25
2023-05-16T20:21:24.524Z,18.21
2023-05-16T20:23:55.481Z,18.21
2023-05-16T20:26:27.662Z,18.19
2023-05-16T20:28:58.535Z,18.15
2023-05-16T20:31:32.280Z,18.13
2023-05-16T20:34:03.152Z,18.12
2023-05-16T20:36:37.017Z,18.07
2023-05-16T20:39:10.810Z,18.02
2023-05-16T20:41:44.241Z,17.95
2023-05-16T20:44:15.451Z,17.91
2023-05-16T20:46:47.238Z,17.86
2023-05-16T20:49:18.219Z,17.82
2023-05-16T20:51:49.004Z,17.76
2023-05-16T20:54:20.092Z,17.74
2023-05-16T20:56:51.051Z,17.72
2023-05-16T20:59:21.819Z,17.68
2023-05-16T21:01:53.017Z,17.61
2023-05-16T21:04:24.072Z,17.53
2023-05-16T21:06:55.082Z,17.51
2023-05-16T21:09:25.990Z,17.47
2023-05-16T21:11:58.676Z,17.43
2023-05-16T21:14:29.729Z,17.37
2023-05-16T21:17:00.461Z,17.31
2023-05-16T21:19:34.978Z,17.25
2023-05-16T21:22:06.188Z,17.20
2023-05-16T21:24:37.685Z,17.17
2023-05-16T21:27:08.530Z,17.11
2023-05-16T21:29:39.528Z,17.05
2023-05-16T21:32:10.245Z,16.95
2023-05-16T21:34:41.155Z,16.85
2023-05-16T21:37:12.026Z,16.77
2023-05-16T21:39:42.741Z,16.72
2023-05-16T21:42:13.758Z,16.65
2023-05-16T21:44:44.535Z,16.57
2023-05-16T21:47:15.377Z,16.51
2023-05-16T21:49:46.138Z,16.44
2023-05-16T21:52:20.463Z,16.37
2023-05-16T21:54:52.044Z,16.32
2023-05-16T21:57:23.005Z,16.26
2023-05-16T21:59:53.988Z,16.18
2023-05-16T22:02:26.876Z,16.15
2023-05-16T22:04:57.628Z,16.14
2023-05-16T22:07:29.509Z,16.13
2023-05-16T22:10:00.330Z,16.09
2023-05-16T22:12:31.166Z,16.07
2023-05-16T22:15:02.133Z,16.02
2023-05-16T22:17:32.976Z,15.99
2023-05-16T22:20:03.803Z,15.94
2023-05-16T22:22:34.715Z,15.92
2023-05-16T22:25:06.625Z,15.91
2023-05-16T22:27:39.499Z,15.90
2023-05-16T22:30:10.957Z,15.92
2023-05-16T22:32:41.934Z,15.90
2023-05-16T22:35:13.497Z,15.89
2023-05-16T22:37:44.390Z,15.86
2023-05-16T22:40:19.593Z,15.82
2023-05-16T22:42:50.449Z,15.79
2023-05-16T22:45:21.098Z,15.76
2023-05-16T22:47:51.930Z,15.69
2023-05-16T22:50:22.702Z,15.65
2023-05-16T22:52:53.457Z,15.61
2023-05-16T22:55:29.588Z,15.60
2023-05-16T22:58:00.822Z,15.57
2023-05-16T23:00:31.627Z,15.55
2023-05-16T23:03:02.546Z,15.55
2023-05-16T23:05:33.358Z,15.55
2023-05-16T23:08:04.631Z,15.54
2023-05-16T23:10:35.399Z,15.51
2023-05-16T23:13:06.172Z,15.49
2023-05-16T23:15:37.027Z,15.44
2023-05-16T23:18:07.845Z,15.37
2023-05-16T23:20:38.798Z,15.33
2023-05-16T23:23:09.628Z,15.32
2023-05-16T23:25:40.706Z,15.29
2023-05-16T23:28:11.502Z,15.29
2023-05-16T23:30:42.253Z,15.28
2023-05-16T23:33:14.369Z,15.28
2023-05-16T23:35:45.202Z,15.27
2023-05-16T23:38:16.120Z,15.26
2023-05-16T23:40:47.062Z,15.27
2023-05-16T23:43:17.898Z,15.26
2023-05-16T23:45:48.568Z,15.24
2023-05-16T23:48:19.560Z,15.24
2023-05-16T23:50:50.627Z,15.26
2023-05-16T23:53:21.513Z,15.28
2023-05-16T23:55:52.533Z,15.28
2023-05-16T23:58:23.180Z,15.29
